Time;durP1;ratioP1;P1;durP2;ratioP2;P2;SDS_P1;SDS_P2;PMS_P1;PMS_P2;Temp;Humidity;BMP_temperature;BMP_pressure;BME280_temperature;BME280_humidity;BME280_pressure;Samples;Min_cycle;Max_cycle;Signal;HPM_P1;HPM_P2
2021/12/31 00:01:02;;;;;;;9.05;4.28;;;;;;;12.69;100.00;101638.34;5052858;28;20037;-52
2021/12/31 00:03:32;;;;;;;10.68;3.38;;;;;;;12.72;100.00;101645.22;5050996;28;20122;-55
2021/12/31 00:06:00;;;;;;;12.82;3.50;;;;;;;12.71;100.00;101646.16;5052618;28;20072;-53
2021/12/31 00:08:28;;;;;;;7.95;3.45;;;;;;;12.77;100.00;101643.16;5049222;28;20056;-53
2021/12/31 00:10:59;;;;;;;5.60;3.22;;;;;;;12.78;100.00;101636.94;5049984;28;20439;-53
2021/12/31 00:13:28;;;;;;;8.43;2.95;;;;;;;12.75;100.00;101632.69;5051881;28;20397;-54
2021/12/31 00:15:56;;;;;;;7.57;3.15;;;;;;;12.76;100.00;101634.41;5048542;28;20136;-54
2021/12/31 00:18:24;;;;;;;9.35;3.45;;;;;;;12.74;100.00;101640.72;5050049;28;20057;-55
2021/12/31 00:20:55;;;;;;;8.55;3.00;;;;;;;12.72;100.00;101632.03;5051326;28;20037;-56
2021/12/31 00:23:26;;;;;;;8.55;2.80;;;;;;;12.72;100.00;101642.59;5048532;28;20381;-56
2021/12/31 00:25:55;;;;;;;9.77;3.08;;;;;;;12.70;100.00;101644.50;5051236;28;20095;-55
2021/12/31 00:28:23;;;;;;;8.70;3.10;;;;;;;12.67;100.00;101638.44;5051656;28;20076;-56
2021/12/31 00:30:54;;;;;;;10.57;3.05;;;;;;;12.67;100.00;101629.69;5048467;28;20484;-56
2021/12/31 00:33:23;;;;;;;6.88;2.85;;;;;;;12.68;100.00;101628.75;5049929;28;20044;-56
2021/12/31 00:35:51;;;;;;;8.95;2.75;;;;;;;12.70;100.00;101623.38;5050623;28;20080;-56
2021/12/31 00:38:21;;;;;;;8.90;3.50;;;;;;;12.68;100.00;101605.00;5051351;28;20094;-56
2021/12/31 00:40:49;;;;;;;7.18;2.58;;;;;;;12.68;100.00;101607.63;5051534;28;20041;-57
2021/12/31 00:43:18;;;;;;;6.60;2.30;;;;;;;12.66;100.00;101626.19;5051437;28;20060;-57
2021/12/31 00:45:46;;;;;;;10.43;2.85;;;;;;;12.70;100.00;101634.75;5048523;28;20044;-56
2021/12/31 00:48:14;;;;;;;8.23;2.60;;;;;;;12.71;100.00;101640.88;5049922;28;20048;-55
2021/12/31 00:50:43;;;;;;;9.18;2.45;;;;;;;12.69;100.00;101646.25;5051802;28;20064;-53
2021/12/31 00:53:11;;;;;;;9.77;2.53;;;;;;;12.72;100.00;101643.44;5051834;28;20752;-56
2021/12/31 00:55:40;;;;;;;7.68;2.47;;;;;;;12.71;100.00;101651.44;5051831;28;20418;-57
2021/12/31 00:58:08;;;;;;;8.73;2.47;;;;;;;12.71;100.00;101635.59;5052030;28;20053;-56
2021/12/31 01:00:37;;;;;;;5.70;2.15;;;;;;;12.72;100.00;101632.91;5052000;28;20056;-56
2021/12/31 01:03:05;;;;;;;7.97;2.30;;;;;;;12.72;100.00;101635.53;5051923;28;20051;-55
2021/12/31 01:05:34;;;;;;;5.97;2.20;;;;;;;12.75;100.00;101643.25;5051674;28;20048;-55
2021/12/31 01:08:02;;;;;;;5.93;2.10;;;;;;;12.75;100.00;101647.66;5051826;28;20385;-55
2021/12/31 01:10:30;;;;;;;6.85;2.58;;;;;;;12.77;100.00;101651.91;5051825;28;20528;-56
2021/12/31 01:13:06;;;;;;;6.85;2.20;;;;;;;12.73;100.00;101658.31;5051886;28;20099;-56
2021/12/31 01:15:38;;;;;;;7.70;2.50;;;;;;;12.78;100.00;101658.91;5051995;28;20060;-56
2021/12/31 01:18:21;;;;;;;8.93;2.15;;;;;;;12.80;100.00;101656.16;5055833;28;20049;-56
2021/12/31 01:20:50;;;;;;;6.53;2.45;;;;;;;12.82;100.00;101663.03;5054947;28;20053;-56
2021/12/31 01:23:18;;;;;;;6.28;1.85;;;;;;;12.84;100.00;101658.53;5052393;28;20064;-57
2021/12/31 01:25:46;;;;;;;6.60;1.85;;;;;;;12.80;100.00;101659.66;5054321;28;20049;-57
2021/12/31 01:28:15;;;;;;;6.55;2.15;;;;;;;12.79;100.00;101657.13;5055149;28;20052;-56
2021/12/31 01:30:44;;;;;;;6.57;1.95;;;;;;;12.76;100.00;101654.66;5051613;28;20433;-57
2021/12/31 01:33:12;;;;;;;8.57;1.92;;;;;;;12.75;100.00;101651.19;5052756;28;20095;-56
2021/12/31 01:35:40;;;;;;;9.60;2.30;;;;;;;12.74;100.00;101649.47;5055362;28;20099;-55
2021/12/31 01:38:08;;;;;;;7.57;1.95;;;;;;;12.72;100.00;101651.38;5055511;28;20079;-55
2021/12/31 01:40:36;;;;;;;6.10;1.98;;;;;;;12.73;100.00;101650.41;5055338;28;20048;-54
2021/12/31 01:43:04;;;;;;;7.05;1.92;;;;;;;12.75;100.00;101658.22;5055169;28;20476;-53
2021/12/31 01:45:43;;;;;;;7.53;2.08;;;;;;;12.81;100.00;101663.13;5055132;28;20056;-53
2021/12/31 01:48:22;;;;;;;6.05;2.08;;;;;;;12.77;100.00;101661.63;5054992;28;20136;-53
2021/12/31 01:50:51;;;;;;;5.55;1.67;;;;;;;12.75;100.00;101660.88;5055233;28;20507;-52
2021/12/31 01:53:22;;;;;;;11.05;2.45;;;;;;;12.72;100.00;101666.34;5054834;28;20045;-55
2021/12/31 01:55:52;;;;;;;7.05;2.10;;;;;;;12.74;100.00;101661.84;5053927;28;20076;-53
2021/12/31 01:58:23;;;;;;;4.53;1.80;;;;;;;12.75;100.00;101664.38;5055104;28;20053;-54
2021/12/31 02:00:53;;;;;;;5.80;2.22;;;;;;;12.80;100.00;101674.63;5054942;28;20392;-56
2021/12/31 02:03:23;;;;;;;5.13;1.92;;;;;;;12.75;100.00;101679.34;5054878;28;20083;-54
2021/12/31 02:05:51;;;;;;;7.70;1.88;;;;;;;12.73;100.00;101675.97;5054827;28;20424;-56
2021/12/31 02:08:19;;;;;;;7.25;2.20;;;;;;;12.71;100.00;101676.06;5054645;28;20044;-57
2021/12/31 02:10:50;;;;;;;5.40;1.88;;;;;;;12.74;100.00;101675.03;5054657;28;20119;-57
2021/12/31 02:13:18;;;;;;;4.70;1.98;;;;;;;12.77;100.00;101680.94;5054844;28;20496;-55
2021/12/31 02:15:47;;;;;;;6.60;1.67;;;;;;;12.83;100.00;101669.19;5054666;28;20160;-54
2021/12/31 02:18:16;;;;;;;7.28;1.92;;;;;;;12.77;100.00;101673.03;5054780;28;20062;-56
2021/12/31 02:20:48;;;;;;;7.38;1.75;;;;;;;12.78;100.00;101668.63;5054572;28;20048;-56
2021/12/31 02:23:17;;;;;;;6.60;1.80;;;;;;;12.78;100.00;101665.97;5054795;28;20511;-56
2021/12/31 02:25:45;;;;;;;4.55;1.90;;;;;;;12.76;100.00;101668.72;5054552;28;20049;-56
2021/12/31 02:28:13;;;;;;;7.85;1.83;;;;;;;12.78;100.00;101671.25;5052863;28;20064;-56
2021/12/31 02:30:41;;;;;;;4.57;1.65;;;;;;;12.73;100.00;101668.88;5054398;28;20099;-57
2021/12/31 02:33:09;;;;;;;5.30;1.50;;;;;;;12.80;100.00;101661.44;5052504;28;20048;-56
2021/12/31 02:35:38;;;;;;;6.13;1.50;;;;;;;12.81;100.00;101661.34;5050486;28;20072;-55
2021/12/31 02:38:09;;;;;;;5.03;1.92;;;;;;;12.80;100.00;101659.66;5054058;28;20048;-56
2021/12/31 02:40:39;;;;;;;5.13;1.70;;;;;;;12.78;100.00;101658.06;5052916;28;20052;-57
2021/12/31 02:43:07;;;;;;;4.80;1.40;;;;;;;12.80;100.00;101657.03;5051919;28;20045;-57
2021/12/31 02:45:37;;;;;;;5.07;1.77;;;;;;;12.80;100.00;101654.38;5053120;28;20049;-57
2021/12/31 02:48:06;;;;;;;5.40;1.70;;;;;;;12.79;100.00;101654.47;5053298;28;20102;-55
2021/12/31 02:50:39;;;;;;;6.22;1.92;;;;;;;12.81;100.00;101661.34;5052899;28;20110;-56
2021/12/31 02:53:11;;;;;;;7.15;1.88;;;;;;;12.80;100.00;101661.44;5053951;28;20077;-56
2021/12/31 02:55:40;;;;;;;8.40;1.90;;;;;;;12.78;100.00;101660.69;5054130;28;20503;-56
2021/12/31 02:58:10;;;;;;;5.05;1.58;;;;;;;12.83;100.00;101669.19;5053716;28;20069;-56
2021/12/31 03:00:41;;;;;;;5.78;2.38;;;;;;;12.83;100.00;101670.03;5050743;28;20495;-55
2021/12/31 03:03:11;;;;;;;4.43;1.70;;;;;;;12.82;100.00;101667.47;5051227;28;20122;-56
2021/12/31 03:05:42;;;;;;;4.85;1.80;;;;;;;12.89;100.00;101660.88;5053877;28;20377;-56
2021/12/31 03:08:12;;;;;;;4.18;1.58;;;;;;;12.88;100.00;101650.41;5054111;28;20154;-56
2021/12/31 03:10:41;;;;;;;4.72;1.55;;;;;;;12.87;100.00;101662.78;5052384;28;20060;-56
2021/12/31 03:13:09;;;;;;;4.32;1.42;;;;;;;12.87;100.00;101652.22;5053625;28;20132;-56
2021/12/31 03:15:39;;;;;;;5.88;1.80;;;;;;;12.87;100.00;101654.84;5053775;28;20507;-57
2021/12/31 03:18:09;;;;;;;4.32;1.70;;;;;;;12.82;100.00;101641.91;5052398;28;20053;-56
2021/12/31 03:20:38;;;;;;;6.13;1.50;;;;;;;12.84;100.00;101636.53;5051548;28;20040;-56
2021/12/31 03:23:06;;;;;;;4.85;1.30;;;;;;;12.82;100.00;101627.88;5050445;28;20052;-55
2021/12/31 03:25:36;;;;;;;5.70;1.50;;;;;;;12.87;100.00;101633.75;5052460;28;20041;-56
2021/12/31 03:28:05;;;;;;;3.83;1.73;;;;;;;12.83;100.00;101629.59;5050066;28;20079;-53
2021/12/31 03:30:34;;;;;;;7.40;1.85;;;;;;;12.83;100.00;101646.28;5050834;28;20048;-54
2021/12/31 03:33:02;;;;;;;4.32;1.63;;;;;;;12.84;100.00;101645.34;5051890;28;20045;-54
2021/12/31 03:35:30;;;;;;;8.05;1.80;;;;;;;12.87;100.00;101639.00;5050047;28;20079;-55
2021/12/31 03:37:58;;;;;;;5.75;1.70;;;;;;;12.84;100.00;101626.00;5052485;28;20060;-52
2021/12/31 03:40:26;;;;;;;4.53;1.60;;;;;;;12.91;100.00;101631.72;5052711;28;20412;-55
2021/12/31 03:42:56;;;;;;;3.72;1.50;;;;;;;12.87;100.00;101620.53;5052990;28;20044;-54
2021/12/31 03:45:24;;;;;;;7.40;1.90;;;;;;;12.83;100.00;101617.22;5053028;28;20076;-57
2021/12/31 03:47:52;;;;;;;7.13;1.70;;;;;;;12.80;100.00;101621.84;5052979;28;20036;-55
2021/12/31 03:50:20;;;;;;;6.63;1.85;;;;;;;12.79;100.00;101618.38;5052851;28;20055;-55
2021/12/31 03:52:48;;;;;;;5.43;1.70;;;;;;;12.78;100.00;101623.75;5052806;28;20060;-54
2021/12/31 03:55:17;;;;;;;5.90;1.83;;;;;;;12.78;100.00;101621.94;5052965;28;20404;-53
2021/12/31 03:57:45;;;;;;;5.03;1.95;;;;;;;12.76;100.00;101617.69;5052933;28;20348;-53
2021/12/31 04:00:15;;;;;;;5.35;1.98;;;;;;;12.74;100.00;101627.53;5049625;28;20049;-55
2021/12/31 04:02:44;;;;;;;8.05;1.60;;;;;;;12.75;100.00;101616.00;5049359;28;20056;-54
2021/12/31 04:05:12;;;;;;;5.75;1.70;;;;;;;12.80;100.00;101614.78;5052312;28;20125;-53
2021/12/31 04:07:40;;;;;;;7.68;2.00;;;;;;;12.79;100.00;101609.63;5052442;28;20051;-53
2021/12/31 04:10:09;;;;;;;4.90;1.90;;;;;;;12.77;100.00;101614.13;5052889;28;20128;-54
2021/12/31 04:12:38;;;;;;;3.83;1.40;;;;;;;12.80;100.00;101603.38;5052615;28;20560;-55
2021/12/31 04:15:07;;;;;;;5.07;2.30;;;;;;;12.79;100.00;101599.88;5052358;28;20090;-55
2021/12/31 04:17:37;;;;;;;4.65;1.65;;;;;;;12.77;100.00;101609.69;5052391;28;20041;-54
2021/12/31 04:20:10;;;;;;;4.18;1.65;;;;;;;12.74;100.00;101611.69;5052363;28;20055;-53
2021/12/31 04:22:45;;;;;;;5.43;1.75;;;;;;;12.74;100.00;101609.03;5052088;28;20056;-55
2021/12/31 04:25:13;;;;;;;6.55;1.73;;;;;;;12.71;100.00;101607.44;5051803;28;20103;-53
2021/12/31 04:27:41;;;;;;;6.25;1.60;;;;;;;12.71;100.00;101615.34;5049910;28;20076;-54
2021/12/31 04:30:10;;;;;;;6.43;2.00;;;;;;;12.77;100.00;101604.41;5048329;28;20057;-53
2021/12/31 04:32:40;;;;;;;7.93;1.88;;;;;;;12.76;100.00;101607.13;5051844;28;20045;-54
2021/12/31 04:35:10;;;;;;;7.53;1.95;;;;;;;12.73;100.00;101617.91;5052193;28;20099;-54
2021/12/31 04:37:39;;;;;;;6.95;2.20;;;;;;;12.70;100.00;101618.09;5050213;28;20044;-51
2021/12/31 04:40:08;;;;;;;4.30;1.83;;;;;;;12.67;100.00;101625.25;5049904;28;20045;-51
2021/12/31 04:42:36;;;;;;;5.43;1.75;;;;;;;12.66;100.00;101623.53;5051319;28;20045;-50
2021/12/31 04:45:05;;;;;;;5.80;1.85;;;;;;;12.70;100.00;101618.09;5052066;28;20037;-54
2021/12/31 04:47:34;;;;;;;7.75;1.88;;;;;;;12.67;100.00;101614.69;5051927;28;20053;-55
2021/12/31 04:50:03;;;;;;;6.35;2.10;;;;;;;12.67;100.00;101604.13;5051717;28;20041;-55
2021/12/31 04:52:31;;;;;;;6.95;1.88;;;;;;;12.66;100.00;101612.97;5051604;28;20044;-53
2021/12/31 04:54:59;;;;;;;7.28;1.90;;;;;;;12.65;100.00;101611.31;5052138;28;20456;-54
2021/12/31 04:57:27;;;;;;;5.53;1.70;;;;;;;12.62;100.00;101618.56;5051885;28;20049;-54
2021/12/31 04:59:55;;;;;;;5.07;1.70;;;;;;;12.62;100.00;101616.75;5051828;28;20051;-53
2021/12/31 05:02:23;;;;;;;5.82;1.95;;;;;;;12.64;100.00;101614.06;5051981;28;20110;-54
2021/12/31 05:04:52;;;;;;;6.00;2.10;;;;;;;12.66;100.00;101605.06;5051893;28;20045;-55
2021/12/31 05:07:21;;;;;;;4.50;1.80;;;;;;;12.66;100.00;101612.97;5049059;28;20045;-53
2021/12/31 05:09:49;;;;;;;5.13;1.88;;;;;;;12.60;100.00;101618.66;5049437;28;20491;-55
2021/12/31 05:12:23;;;;;;;5.22;1.80;;;;;;;12.55;100.00;101623.34;5051100;28;20072;-54
2021/12/31 05:14:52;;;;;;;7.80;2.10;;;;;;;12.55;100.00;101620.72;5049047;28;20500;-54
2021/12/31 05:17:20;;;;;;;8.13;2.00;;;;;;;12.59;100.00;101616.94;5049508;28;20111;-54
2021/12/31 05:19:48;;;;;;;4.13;1.80;;;;;;;12.59;100.00;101603.75;5049364;28;20055;-52
2021/12/31 05:22:16;;;;;;;6.55;2.20;;;;;;;12.62;100.00;101610.66;5047800;28;20049;-53
2021/12/31 05:24:45;;;;;;;6.53;1.83;;;;;;;12.66;100.00;101605.06;5051761;28;20045;-53
2021/12/31 05:27:14;;;;;;;5.53;1.88;;;;;;;12.60;100.00;101602.00;5051560;28;20448;-52
2021/12/31 05:29:42;;;;;;;4.88;1.85;;;;;;;12.56;100.00;101590.75;5051441;28;20049;-51
2021/12/31 05:32:10;;;;;;;8.23;2.10;;;;;;;12.52;100.00;101591.91;5051593;28;20131;-50
2021/12/31 05:34:38;;;;;;;8.57;2.17;;;;;;;12.54;100.00;101576.81;5051328;28;20044;-51
2021/12/31 05:37:06;;;;;;;5.75;1.95;;;;;;;12.50;100.00;101570.03;5048124;28;20048;-47
2021/12/31 05:39:34;;;;;;;5.60;1.92;;;;;;;12.54;100.00;101573.31;5049175;28;20535;-51
2021/12/31 05:42:03;;;;;;;7.68;2.45;;;;;;;12.48;100.00;101567.47;5051595;28;20072;-50
2021/12/31 05:44:32;;;;;;;6.35;2.42;;;;;;;12.49;100.00;101565.72;5051519;28;20048;-51
2021/12/31 05:47:00;;;;;;;4.97;1.90;;;;;;;12.50;100.00;101570.03;5051595;28;20080;-52
2021/12/31 05:49:29;;;;;;;7.40;2.45;;;;;;;12.52;100.00;101568.16;5051175;28;20045;-49
2021/12/31 05:51:57;;;;;;;8.15;2.28;;;;;;;12.49;100.00;101566.53;5047891;28;20110;-54
2021/12/31 05:54:25;;;;;;;9.25;2.35;;;;;;;12.45;100.00;101556.28;5049624;28;20361;-53
2021/12/31 05:56:54;;;;;;;6.68;2.17;;;;;;;12.44;100.00;101549.31;5051665;28;20041;-51
2021/12/31 05:59:23;;;;;;;7.97;2.10;;;;;;;12.45;100.00;101557.13;5050826;28;20041;-51
2021/12/31 06:01:51;;;;;;;4.63;1.80;;;;;;;12.51;100.00;101564.66;5051222;28;20102;-53
2021/12/31 06:04:20;;;;;;;7.65;2.33;;;;;;;12.50;100.00;101559.47;5054746;28;20513;-53
2021/12/31 06:06:49;;;;;;;5.85;2.00;;;;;;;12.49;100.00;101561.28;5054897;28;20041;-52
2021/12/31 06:09:17;;;;;;;5.78;2.10;;;;;;;12.52;100.00;101576.06;5054914;28;20519;-52
2021/12/31 06:11:45;;;;;;;4.72;2.13;;;;;;;12.47;100.00;101571.06;5054707;28;20040;-53
2021/12/31 06:14:14;;;;;;;6.40;2.25;;;;;;;12.45;100.00;101580.03;5052522;28;20555;-51
2021/12/31 06:16:46;;;;;;;9.68;2.63;;;;;;;12.45;100.00;101565.03;5050887;28;20052;-53
2021/12/31 06:19:14;;;;;;;7.68;2.20;;;;;;;12.49;100.00;101571.00;5054744;28;20419;-52
2021/12/31 06:21:44;;;;;;;6.15;2.50;;;;;;;12.47;100.00;101584.25;5054481;28;20079;-51
2021/12/31 06:24:14;;;;;;;5.50;2.40;;;;;;;12.46;100.00;101581.69;5054717;28;20049;-51
2021/12/31 06:26:42;;;;;;;5.72;2.50;;;;;;;12.40;100.00;101590.00;5054484;28;20537;-53
2021/12/31 06:29:10;;;;;;;8.98;2.35;;;;;;;12.42;100.00;101588.09;5051578;28;20079;-52
2021/12/31 06:31:38;;;;;;;6.97;2.35;;;;;;;12.40;100.00;101596.13;5049407;28;20103;-53
2021/12/31 06:34:08;;;;;;;7.15;2.20;;;;;;;12.37;100.00;101583.13;5052949;28;20143;-51
2021/12/31 06:36:36;;;;;;;7.32;2.67;;;;;;;12.37;100.00;101569.09;5054159;28;20106;-53
2021/12/31 06:39:04;;;;;;;7.97;2.20;;;;;;;12.39;100.00;101575.13;5054451;28;20045;-49
2021/12/31 06:41:32;;;;;;;5.13;2.28;;;;;;;12.42;100.00;101577.56;5053810;28;20118;-51
2021/12/31 06:44:00;;;;;;;6.63;2.10;;;;;;;12.36;100.00;101570.88;5053926;28;20060;-53
2021/12/31 06:46:28;;;;;;;7.80;2.40;;;;;;;12.34;100.00;101573.59;5051623;28;20140;-53
2021/12/31 06:48:56;;;;;;;5.30;2.20;;;;;;;12.33;100.00;101560.53;5051146;28;20574;-52
2021/12/31 06:51:26;;;;;;;4.60;1.90;;;;;;;12.30;100.00;101552.81;5052617;28;20422;-53
2021/12/31 06:53:54;;;;;;;4.95;2.20;;;;;;;12.23;100.00;101556.72;5054174;28;20576;-52
2021/12/31 06:56:22;;;;;;;5.32;2.20;;;;;;;12.18;100.00;101560.50;5050847;28;20040;-53
2021/12/31 06:58:50;;;;;;;6.72;2.33;;;;;;;12.18;100.00;101562.31;5051812;28;20049;-50
2021/12/31 07:01:18;;;;;;;6.15;2.28;;;;;;;12.11;100.00;101563.63;5053740;28;20060;-53
2021/12/31 07:03:46;;;;;;;7.55;2.20;;;;;;;12.05;100.00;101558.69;5053572;28;20457;-52
2021/12/31 07:06:15;;;;;;;5.30;2.17;;;;;;;12.07;100.00;101562.94;5053849;28;20076;-52
2021/12/31 07:08:45;;;;;;;5.50;2.15;;;;;;;12.06;100.00;101566.50;5053590;28;20106;-51
2021/12/31 07:11:16;;;;;;;5.63;2.30;;;;;;;12.05;100.00;101558.69;5053729;28;20053;-53
2021/12/31 07:13:44;;;;;;;7.07;2.30;;;;;;;11.96;100.00;101560.94;5052854;28;20060;-54
2021/12/31 07:16:12;;;;;;;7.82;2.45;;;;;;;11.98;100.00;101559.09;5053560;28;20128;-50
2021/12/31 07:18:40;;;;;;;4.90;2.13;;;;;;;11.93;100.00;101545.28;5052229;28;20072;-52
2021/12/31 07:21:08;;;;;;;6.15;2.00;;;;;;;11.88;100.00;101542.06;5052160;28;20053;-50
2021/12/31 07:23:36;;;;;;;7.07;2.17;;;;;;;11.81;100.00;101535.47;5051383;28;20171;-51
2021/12/31 07:26:05;;;;;;;6.20;2.28;;;;;;;11.82;100.00;101537.16;5050754;28;20056;-52
2021/12/31 07:28:34;;;;;;;9.23;3.38;;;;;;;11.78;100.00;101540.91;5052015;28;20052;-53
2021/12/31 07:31:02;;;;;;;4.95;1.95;;;;;;;11.75;100.00;101534.06;5049655;28;20053;-51
2021/12/31 07:33:33;;;;;;;7.50;2.40;;;;;;;11.72;100.00;101536.84;5050979;28;20400;-53
2021/12/31 07:36:01;;;;;;;6.32;2.45;;;;;;;11.72;100.00;101543.94;5051950;28;20049;-55
2021/12/31 07:38:33;;;;;;;4.85;2.03;;;;;;;11.68;100.00;101551.16;5052892;28;20128;-53
2021/12/31 07:41:02;;;;;;;5.43;2.27;;;;;;;11.65;100.00;101554.81;5052469;28;20068;-55
2021/12/31 07:43:32;;;;;;;6.05;2.38;;;;;;;11.64;100.00;101537.34;5052771;28;21081;-54
2021/12/31 07:46:00;;;;;;;6.28;2.53;;;;;;;11.63;100.00;101545.28;5053375;28;20045;-52
2021/12/31 07:48:28;;;;;;;6.90;2.42;;;;;;;11.61;100.00;101558.56;5053142;28;20136;-51
2021/12/31 07:50:56;;;;;;;6.28;2.10;;;;;;;11.59;100.00;101560.44;5052018;28;20060;-54
2021/12/31 07:53:25;;;;;;;7.20;2.30;;;;;;;11.56;100.00;101562.41;5049555;28;20045;-52
2021/12/31 07:55:53;;;;;;;6.57;2.22;;;;;;;11.55;100.00;101566.84;5051422;28;20055;-52
2021/12/31 07:58:21;;;;;;;6.25;2.00;;;;;;;11.58;100.00;101577.19;5052764;28;20088;-53
2021/12/31 08:00:51;;;;;;;6.35;2.33;;;;;;;11.58;100.00;101579.81;5052647;28;20044;-52
2021/12/31 08:03:19;;;;;;;9.02;2.30;;;;;;;11.60;100.00;101585.88;5052632;28;20540;-51
2021/12/31 08:05:47;;;;;;;5.05;2.40;;;;;;;11.60;100.00;101587.63;5052740;28;20065;-52
2021/12/31 08:08:15;;;;;;;5.75;2.22;;;;;;;11.55;100.00;101598.44;5052711;28;20041;-51
2021/12/31 08:10:44;;;;;;;5.07;2.33;;;;;;;11.59;100.00;101601.75;5052530;28;20518;-52
2021/12/31 08:13:27;;;;;;;5.72;2.00;;;;;;;11.55;100.00;101608.13;5051162;28;20064;-51
2021/12/31 08:15:57;;;;;;;6.95;2.30;;;;;;;11.54;100.00;101607.28;5052476;28;20057;-53
2021/12/31 08:18:25;;;;;;;6.50;2.20;;;;;;;11.51;100.00;101607.47;5052585;28;20049;-52
2021/12/31 08:20:53;;;;;;;3.45;1.85;;;;;;;11.52;100.00;101619.72;5052405;28;20072;-51
2021/12/31 08:23:21;;;;;;;6.05;2.13;;;;;;;11.46;100.00;101612.97;5050030;28;20098;-52
2021/12/31 08:25:49;;;;;;;5.60;2.13;;;;;;;11.46;100.00;101598.97;5048209;28;20115;-49
2021/12/31 08:28:17;;;;;;;4.50;2.10;;;;;;;11.44;100.00;101601.69;5052278;28;20063;-52
2021/12/31 08:30:45;;;;;;;5.78;2.42;;;;;;;11.44;100.00;101595.59;5050563;28;20101;-53
2021/12/31 08:33:15;;;;;;;7.28;2.10;;;;;;;11.47;100.00;101606.78;5049149;28;20041;-52
2021/12/31 08:35:43;;;;;;;5.45;2.70;;;;;;;11.48;100.00;101616.38;5050890;28;20130;-52
2021/12/31 08:38:11;;;;;;;4.28;2.25;;;;;;;11.47;100.00;101611.22;5052150;28;20095;-51
2021/12/31 08:40:39;;;;;;;5.60;2.28;;;;;;;11.50;100.00;101621.56;5052298;28;20059;-50
2021/12/31 08:43:07;;;;;;;5.20;2.20;;;;;;;11.44;100.00;101614.88;5051855;28;20076;-52
2021/12/31 08:45:36;;;;;;;6.90;2.20;;;;;;;11.54;100.00;101622.25;5051930;28;20037;-49
2021/12/31 08:48:05;;;;;;;4.95;2.10;;;;;;;11.49;100.00;101617.22;5050313;28;20103;-51
2021/12/31 08:50:35;;;;;;;4.75;2.05;;;;;;;11.50;100.00;101618.94;5048452;28;20053;-51
2021/12/31 08:53:05;;;;;;;5.88;2.30;;;;;;;11.47;100.00;101624.38;5052229;28;20061;-51
2021/12/31 08:55:33;;;;;;;6.30;2.42;;;;;;;11.48;100.00;101618.19;5052072;28;20037;-51
2021/12/31 08:58:02;;;;;;;5.38;2.45;;;;;;;11.48;100.00;101607.66;5051853;28;20045;-49
2021/12/31 09:00:30;;;;;;;8.27;2.47;;;;;;;11.49;100.00;101609.31;5051814;28;20053;-53
2021/12/31 09:02:58;;;;;;;6.90;2.60;;;;;;;11.51;100.00;101618.00;5051976;28;20432;-53
2021/12/31 09:05:27;;;;;;;7.43;2.22;;;;;;;11.46;100.00;101612.13;5051734;28;20055;-50
2021/12/31 09:07:57;;;;;;;5.85;2.38;;;;;;;11.54;100.00;101603.81;5052204;28;20048;-53
2021/12/31 09:10:25;;;;;;;5.35;2.10;;;;;;;11.48;100.00;101591.84;5051001;28;20399;-53
2021/12/31 09:12:54;;;;;;;7.72;2.50;;;;;;;11.53;100.00;101594.19;5051006;28;20064;-52
2021/12/31 09:15:22;;;;;;;5.28;2.03;;;;;;;11.55;100.00;101589.69;5051594;28;20053;-53
2021/12/31 09:17:50;;;;;;;6.72;2.17;;;;;;;11.52;100.00;101582.81;5051464;28;20045;-50
2021/12/31 09:20:18;;;;;;;4.05;2.00;;;;;;;11.60;100.00;101591.13;5047830;28;20053;-52
2021/12/31 09:22:46;;;;;;;5.38;2.40;;;;;;;11.60;100.00;101585.88;5048694;28;20041;-52
2021/12/31 09:25:16;;;;;;;6.38;2.20;;;;;;;11.60;100.00;101587.63;5051644;28;20045;-52
2021/12/31 09:27:44;;;;;;;5.43;2.38;;;;;;;11.61;100.00;101590.19;5051642;28;20477;-50
2021/12/31 09:30:14;;;;;;;7.05;2.42;;;;;;;11.61;100.00;101595.44;5051742;28;20090;-50
2021/12/31 09:32:42;;;;;;;6.25;2.35;;;;;;;11.63;100.00;101609.41;5051569;28;20059;-50
2021/12/31 09:35:11;;;;;;;4.80;2.25;;;;;;;11.62;100.00;101630.56;5051395;28;20041;-50
2021/12/31 09:37:40;;;;;;;6.05;2.10;;;;;;;11.69;100.00;101626.63;5052794;28;20056;-50
2021/12/31 09:40:11;;;;;;;5.78;2.35;;;;;;;11.68;100.00;101617.03;5055563;28;20438;-50
2021/12/31 09:42:46;;;;;;;6.90;2.30;;;;;;;11.64;100.00;101621.63;5055373;28;20057;-52
2021/12/31 09:45:15;;;;;;;7.18;2.22;;;;;;;11.62;100.00;101615.59;5055397;28;20049;-52
2021/12/31 09:47:44;;;;;;;5.38;2.13;;;;;;;11.68;100.00;101619.66;5055008;28;20053;-50
2021/12/31 09:50:12;;;;;;;6.30;2.40;;;;;;;11.67;100.00;101624.09;5052839;28;20455;-54
2021/12/31 09:52:42;;;;;;;5.70;2.30;;;;;;;11.71;100.00;101623.91;5051653;28;20041;-50
2021/12/31 09:55:10;;;;;;;4.10;1.77;;;;;;;11.78;100.00;101635.78;5054261;28;20045;-52
2021/12/31 09:57:38;;;;;;;7.63;2.40;;;;;;;11.83;100.00;101639.88;5054619;28;20075;-49
2021/12/31 10:00:09;;;;;;;4.97;1.85;;;;;;;11.83;100.00;101633.72;5054339;28;20042;-49
2021/12/31 10:02:37;;;;;;;6.30;3.28;;;;;;;11.85;100.00;101655.59;5051528;28;20672;-51
2021/12/31 10:05:05;;;;;;;5.85;2.38;;;;;;;11.96;100.00;101650.56;5053903;28;20447;-51
2021/12/31 10:07:34;;;;;;;5.57;2.17;;;;;;;11.98;100.00;101664.53;5055086;28;20556;-49
2021/12/31 10:10:06;;;;;;;4.97;2.30;;;;;;;12.00;100.00;101654.72;5055281;28;20040;-51
2021/12/31 10:12:52;;;;;;;5.65;2.30;;;;;;;11.99;100.00;101671.47;5054975;28;20404;-51
2021/12/31 10:15:24;;;;;;;5.63;2.08;;;;;;;12.00;100.00;101674.97;5054998;28;20052;-51
2021/12/31 10:17:53;;;;;;;6.50;2.30;;;;;;;11.99;100.00;101671.47;5052743;28;20500;-52
2021/12/31 10:20:22;;;;;;;7.80;2.08;;;;;;;11.97;100.00;101665.47;5052189;28;20491;-53
2021/12/31 10:22:51;;;;;;;5.07;2.10;;;;;;;12.04;100.00;101659.81;5054225;28;20504;-50
2021/12/31 10:25:22;;;;;;;5.40;1.90;;;;;;;11.99;100.00;101647.75;5054183;28;20047;-49
2021/12/31 10:27:51;;;;;;;4.53;1.80;;;;;;;12.02;100.00;101644.09;5053057;28;20049;-50
2021/12/31 10:30:26;;;;;;;4.05;2.00;;;;;;;11.98;100.00;101635.53;5050974;28;20048;-53
2021/12/31 10:32:55;;;;;;;5.95;2.33;;;;;;;12.04;100.00;101630.81;5052149;28;20080;-51
2021/12/31 10:35:23;;;;;;;6.68;2.10;;;;;;;12.03;100.00;101619.44;5054303;28;20056;-50
2021/12/31 10:37:57;;;;;;;4.45;2.30;;;;;;;11.97;100.00;101631.19;5054226;28;20570;-51
2021/12/31 10:40:28;;;;;;;5.32;2.00;;;;;;;12.00;100.00;101640.72;5054260;28;20059;-52
2021/12/31 10:43:16;;;;;;;5.95;2.15;;;;;;;12.06;100.00;101628.94;5054177;28;20063;-52
2021/12/31 10:46:03;;;;;;;7.40;3.08;;;;;;;12.04;100.00;101633.44;5054266;28;20037;-50
2021/12/31 10:48:40;;;;;;;6.43;2.25;;;;;;;12.07;100.00;101622.75;5053276;28;20549;-49
2021/12/31 10:51:09;;;;;;;5.43;2.17;;;;;;;12.11;100.00;101619.00;5054272;28;20131;-49
2021/12/31 10:53:37;;;;;;;5.72;2.42;;;;;;;12.12;100.00;101618.03;5054033;28;20107;-49
2021/12/31 10:56:08;;;;;;;7.55;2.80;;;;;;;12.16;100.00;101609.00;5053938;28;20060;-51
2021/12/31 10:58:37;;;;;;;5.93;2.40;;;;;;;12.21;100.00;101596.38;5054106;28;20040;-51
2021/12/31 11:01:08;;;;;;;5.85;2.17;;;;;;;12.23;100.00;101586.59;5054215;28;20045;-48
2021/12/31 11:03:39;;;;;;;6.38;2.30;;;;;;;12.26;100.00;101594.31;5051843;28;20132;-52
2021/12/31 11:06:10;;;;;;;5.85;2.45;;;;;;;12.29;100.00;101595.94;5050938;28;20683;-51
2021/12/31 11:08:38;;;;;;;5.72;2.20;;;;;;;12.36;100.00;101604.31;5053338;28;20036;-52
2021/12/31 11:11:07;;;;;;;5.20;2.45;;;;;;;12.35;100.00;101603.47;5053908;28;20049;-50
2021/12/31 11:13:35;;;;;;;4.47;2.30;;;;;;;12.39;100.00;101602.34;5053958;28;20055;-52
2021/12/31 11:16:03;;;;;;;7.13;2.72;;;;;;;12.43;100.00;101587.19;5054051;28;20049;-49
2021/12/31 11:18:32;;;;;;;4.45;2.30;;;;;;;12.38;100.00;101578.69;5053733;28;20102;-50
2021/12/31 11:21:03;;;;;;;6.65;2.67;;;;;;;12.39;100.00;101575.94;5053465;28;20136;-53
2021/12/31 11:23:33;;;;;;;5.40;2.00;;;;;;;12.36;100.00;101578.78;5053889;28;20048;-53
2021/12/31 11:26:04;;;;;;;5.97;2.40;;;;;;;12.40;100.00;101571.53;5053277;28;20048;-52